Hundvaag 1 weather for Aug 2008
Month no. 254
Obs.
Da.
Temp. Dew Point Precip. Wind
Speed
Wind gusts Cloud cover Press. Humidity Wind dir. Sunny OPT
01.08.2008 20,4   0,0 0,0   8 1014,9 57,0 67,5 1 95,0 %
02.08.2008 14,8   13,7 0,0   9 1009,5 97,0 135,0 1 80,0 %
03.08.2008 13,0   31,0 0,0   2 1004,4 97,0 135,0 1 47,5 %
04.08.2008 14,4   15,1 1,0   7 999,3 96,0 45,0 1 72,5 %
05.08.2008 15,7   10,0 2,0   2 1006,4 88,0 292,5   67,5 %
06.08.2008 14,3   0,0 0,0   3 1012,5 91,0 180,0 1 75,0 %
07.08.2008 14,4   11,6 1,0   0 1004,7 98,0 22,5   60,0 %
08.08.2008 13,3   1,0 3,0   9 1000,3 85,0 315,0 1 90,0 %
09.08.2008 13,8   0,0 1,0   3 1005,4 82,0 270,0 1 75,0 %
10.08.2008 14,2   0,0 1,0   0 994,6 74,0 180,0   67,5 %
11.08.2008 13,6   11,0 0,0   0 990,5 97,0 202,5 1 60,0 %
12.08.2008 13,9   4,2 1,0   4 997,6 92,0 157,5 1 75,0 %
13.08.2008 14,1   1,5 0,0   2 988,8 89,0 157,5 1 72,5 %
14.08.2008 13,7   1,8 0,0   1 995,6 93,0 270,0   70,0 %
15.08.2008 11,6   2,8 1,0   2 1010,8 92,0 0,0   70,0 %
16.08.2008 10,1   0,0 0,0   10 1013,2 96,0 292,5 1 90,0 %
17.08.2008 12,7   0,0 0,0   10 1013,2 91,0 292,5 1 92,5 %
18.08.2008 12,7   0,0 0,0   10 1008,1 94,0 45,0 1 92,5 %
19.08.2008 11,8   0,0 0,0   5 1002,4 96,0 0,0 1 77,5 %
20.08.2008 14,7   3,3 1,0   1 996,6 97,0 22,5 1 67,5 %
21.08.2008 14,5   0,0 1,0   2 1006,4 86,0 292,5 1 72,5 %
22.08.2008 13,2   0,0 0,0   3 1009,1 83,0 67,5 1 75,0 %
23.08.2008 12,2   0,0 1,0   9 1009,8 90,0 22,5 1 87,5 %
24.08.2008 13,6   0,0 1,0   8 1007,8 84,0 157,5 1 87,5 %
25.08.2008 14,6   2,0 1,0   1 1006,8 90,0 112,5   70,0 %
26.08.2008 12,8   11,4 0,0   5 1010,2 98,0 292,5 1 72,5 %
27.08.2008 13,1   3,5 0,0   0 1008,1 97,0 157,5   65,0 %
28.08.2008 12,3   6,0 2,0   3 1009,8 86,0 270,0 1 67,5 %
29.08.2008 11,2   0,1 0,0   7 1014,2 85,0 22,5 1 82,5 %
30.08.2008 10,4   0,0 0,0   2 1021,0 96,0 67,5 1 70,0 %
31.08.2008 12,9   0,0 0,0   2 1017,6 96,0 135,0 1 72,5 %
Avrg/Sum 13,5   130,0 0,6   4,2 1006,1 90,1 151,0 24 74,8 %